Time;durP1;ratioP1;P1;durP2;ratioP2;P2;SDS_P1;SDS_P2;PMS_P1;PMS_P2;Temp;Humidity;BMP_temperature;BMP_pressure;BME280_temperature;BME280_humidity;BME280_pressure;Samples;Min_cycle;Max_cycle;Signal;HPM_P1;HPM_P2
2023/03/21 02:13:42;;;;;;;;;;;19.20;38.70;;;;;;3036597;19;5232;-81
2023/03/21 06:18:26;;;;;;;;;;;20.20;43.00;;;;;;1587539;19;610765715;31
2023/03/21 06:19:27;;;;;;;;;;;21.00;40.50;;;;;;3053397;19;5092;-75
2023/03/21 06:20:28;;;;;;;;;;;20.90;40.50;;;;;;3053895;19;5500;-76
2023/03/21 06:21:28;;;;;;;;;;;20.90;40.50;;;;;;3053995;19;4780;-75
2023/03/21 06:22:30;;;;;;;;;;;20.90;40.50;;;;;;3054652;19;6116;-74
2023/03/21 06:23:31;;;;;;;;;;;20.90;40.60;;;;;;3054236;19;4883;-75
2023/03/21 06:24:32;;;;;;;;;;;20.90;40.60;;;;;;3052853;19;5722;-73
2023/03/21 06:25:34;;;;;;;;;;;20.90;40.60;;;;;;3052770;19;5374;-75
2023/03/21 06:26:35;;;;;;;;;;;20.90;40.60;;;;;;3052459;19;4930;-75
2023/03/21 06:27:35;;;;;;;;;;;20.90;40.80;;;;;;3055059;19;5184;-75
2023/03/21 06:28:36;;;;;;;;;;;20.90;40.80;;;;;;3053625;19;4953;-74
2023/03/21 06:29:37;;;;;;;;;;;20.90;40.80;;;;;;3053752;19;4408;-75
2023/03/21 06:30:38;;;;;;;;;;;21.00;40.70;;;;;;3054167;19;5183;-76
2023/03/21 06:31:39;;;;;;;;;;;21.00;40.60;;;;;;3053926;19;4973;-76
2023/03/21 06:32:39;;;;;;;;;;;21.00;40.60;;;;;;3052393;19;5161;-75
2023/03/21 06:33:40;;;;;;;;;;;21.00;40.50;;;;;;3054156;19;4517;-74
2023/03/21 06:34:41;;;;;;;;;;;21.10;40.60;;;;;;3038103;19;4890;-76
2023/03/21 06:35:43;;;;;;;;;;;21.10;40.50;;;;;;3053853;19;5031;-77
2023/03/21 06:36:45;;;;;;;;;;;21.10;40.50;;;;;;3054718;19;5094;-77
2023/03/21 06:37:48;;;;;;;;;;;21.10;40.50;;;;;;3053682;19;5420;-75
2023/03/21 06:38:48;;;;;;;;;;;21.10;40.40;;;;;;3054046;19;4938;-75
2023/03/21 06:39:49;;;;;;;;;;;21.10;40.50;;;;;;3054190;19;4526;-75
2023/03/21 06:40:50;;;;;;;;;;;21.10;40.40;;;;;;3054514;19;4916;-76
2023/03/21 06:41:51;;;;;;;;;;;21.10;40.40;;;;;;3030570;19;4960;-74
2023/03/21 06:42:51;;;;;;;;;;;21.10;40.50;;;;;;3050326;19;5203;-74
2023/03/21 06:43:52;;;;;;;;;;;21.10;40.40;;;;;;3051807;19;4936;-75
2023/03/21 06:44:52;;;;;;;;;;;21.10;40.50;;;;;;3051057;19;4466;-77
2023/03/21 06:45:54;;;;;;;;;;;21.10;40.40;;;;;;3050307;19;4347;-76
2023/03/21 06:46:57;;;;;;;;;;;21.10;40.40;;;;;;3051220;19;5915;-75
2023/03/21 06:47:59;;;;;;;;;;;21.10;40.40;;;;;;3052185;19;4861;-76
2023/03/21 06:48:59;;;;;;;;;;;21.10;40.50;;;;;;3050984;19;5335;-76
2023/03/21 06:50:01;;;;;;;;;;;21.00;40.40;;;;;;3049471;19;4766;-75
2023/03/21 06:51:03;;;;;;;;;;;21.00;40.50;;;;;;3051299;19;4909;-75
2023/03/21 06:52:04;;;;;;;;;;;21.00;40.50;;;;;;3052406;19;4994;-75
2023/03/21 06:53:05;;;;;;;;;;;21.00;40.50;;;;;;3052063;19;4881;-75
2023/03/21 06:54:06;;;;;;;;;;;21.00;40.60;;;;;;3051218;19;4572;-75
2023/03/21 06:55:08;;;;;;;;;;;21.00;40.50;;;;;;3050867;19;5560;-75
2023/03/21 06:56:10;;;;;;;;;;;21.00;40.50;;;;;;3053261;19;4745;-75
2023/03/21 06:57:12;;;;;;;;;;;21.00;40.60;;;;;;3051280;19;4881;-75
2023/03/21 06:58:12;;;;;;;;;;;21.00;40.60;;;;;;3050095;19;4764;-76
2023/03/21 06:59:13;;;;;;;;;;;21.00;40.80;;;;;;3053526;19;4977;-75
2023/03/21 07:00:15;;;;;;;;;;;21.00;40.70;;;;;;3052580;19;4438;-76
2023/03/21 07:01:16;;;;;;;;;;;21.10;40.60;;;;;;3053378;19;4557;-76
2023/03/21 07:02:17;;;;;;;;;;;21.10;40.50;;;;;;3053344;19;5470;-75
2023/03/21 07:03:18;;;;;;;;;;;21.20;40.40;;;;;;3053413;19;5364;-75
2023/03/21 07:04:18;;;;;;;;;;;21.20;40.30;;;;;;3053442;19;4479;-75
2023/03/21 07:05:19;;;;;;;;;;;21.20;40.30;;;;;;3052707;19;4999;-75
2023/03/21 07:06:20;;;;;;;;;;;21.20;40.30;;;;;;3050424;19;4401;-75
2023/03/21 07:07:24;;;;;;;;;;;21.20;40.30;;;;;;3051105;19;5609;-76
2023/03/21 07:08:25;;;;;;;;;;;21.20;40.30;;;;;;3052412;19;4581;-72
2023/03/21 07:09:27;;;;;;;;;;;21.20;40.30;;;;;;3051620;19;4988;-69
2023/03/21 07:10:28;;;;;;;;;;;21.20;40.40;;;;;;3052596;19;4812;-71
2023/03/21 07:11:29;;;;;;;;;;;21.20;40.30;;;;;;3049482;19;4861;-71
2023/03/21 07:12:32;;;;;;;;;;;21.20;40.40;;;;;;3050369;19;4882;-67
2023/03/21 07:13:33;;;;;;;;;;;21.20;40.30;;;;;;3048996;19;5043;-68
2023/03/21 07:14:34;;;;;;;;;;;21.20;40.30;;;;;;3052796;19;5001;-68
2023/03/21 07:15:36;;;;;;;;;;;21.20;40.40;;;;;;3050898;19;4987;-69
2023/03/21 07:16:37;;;;;;;;;;;21.20;40.40;;;;;;3051701;19;4970;-68
2023/03/21 07:17:38;;;;;;;;;;;21.20;40.40;;;;;;3052132;19;5105;-68
2023/03/21 07:18:39;;;;;;;;;;;21.20;40.40;;;;;;3049551;19;4974;-69
2023/03/21 07:19:39;;;;;;;;;;;21.20;40.40;;;;;;3049258;19;5412;-68
2023/03/21 07:20:40;;;;;;;;;;;21.20;40.40;;;;;;3048038;19;4848;-68
2023/03/21 07:21:41;;;;;;;;;;;21.20;40.40;;;;;;3051755;19;4887;-68
2023/03/21 07:22:41;;;;;;;;;;;21.20;40.50;;;;;;3052188;19;4967;-68
2023/03/21 07:23:42;;;;;;;;;;;21.20;41.10;;;;;;3052727;19;4309;-69
2023/03/21 07:24:43;;;;;;;;;;;21.20;40.40;;;;;;3052308;19;4823;-68
2023/03/21 07:25:44;;;;;;;;;;;21.20;40.50;;;;;;3053197;19;4741;-68
2023/03/21 07:26:44;;;;;;;;;;;21.20;40.50;;;;;;3051862;19;5041;-68
2023/03/21 07:27:45;;;;;;;;;;;21.20;40.60;;;;;;3052193;19;4813;-67
2023/03/21 07:28:46;;;;;;;;;;;21.20;40.50;;;;;;3051235;19;4788;-68
2023/03/21 07:29:49;;;;;;;;;;;21.20;40.60;;;;;;3053801;19;4958;-67
2023/03/21 07:30:54;;;;;;;;;;;21.20;40.60;;;;;;3052436;19;5262;-67
2023/03/21 07:31:55;;;;;;;;;;;21.10;40.60;;;;;;3051818;19;5380;-68
2023/03/21 07:32:55;;;;;;;;;;;21.10;40.60;;;;;;3053429;19;4937;-68
2023/03/21 07:33:56;;;;;;;;;;;21.10;40.70;;;;;;3052807;19;6018;-69
2023/03/21 07:34:57;;;;;;;;;;;21.10;40.70;;;;;;3052992;19;5218;-70
2023/03/21 07:35:57;;;;;;;;;;;21.10;40.80;;;;;;3054077;19;4913;-69
2023/03/21 07:36:59;;;;;;;;;;;21.10;41.00;;;;;;3053242;19;5042;-68
2023/03/21 07:37:59;;;;;;;;;;;21.10;40.80;;;;;;3052339;19;4913;-68
2023/03/21 07:39:00;;;;;;;;;;;21.00;40.80;;;;;;3051974;19;5044;-68
2023/03/21 07:40:01;;;;;;;;;;;21.00;40.90;;;;;;3052417;19;4510;-67
2023/03/21 07:41:01;;;;;;;;;;;21.00;40.90;;;;;;3054047;19;5332;-68
2023/03/21 07:42:02;;;;;;;;;;;21.00;40.90;;;;;;3051712;19;4883;-67
2023/03/21 07:43:03;;;;;;;;;;;21.00;40.90;;;;;;3051792;19;4928;-68
2023/03/21 07:44:04;;;;;;;;;;;21.00;41.00;;;;;;3052644;19;4911;-68
2023/03/21 07:45:06;;;;;;;;;;;21.00;41.00;;;;;;3056819;19;5446;-67
2023/03/21 07:46:07;;;;;;;;;;;21.00;41.10;;;;;;3059303;19;4908;-68
2023/03/21 07:47:07;;;;;;;;;;;20.90;41.00;;;;;;3059707;19;4803;-66
2023/03/21 07:48:09;;;;;;;;;;;21.00;41.10;;;;;;3059701;19;7098;-68
2023/03/21 07:49:09;;;;;;;;;;;20.90;41.00;;;;;;3066571;19;920;-66
2023/03/21 07:50:10;;;;;;;;;;;20.90;41.10;;;;;;3063251;19;5692;-68
2023/03/21 07:51:11;;;;;;;;;;;21.00;41.40;;;;;;3064032;19;4412;-67
2023/03/21 07:52:11;;;;;;;;;;;21.00;41.30;;;;;;3064422;19;4987;-67
2023/03/21 07:53:12;;;;;;;;;;;21.00;41.20;;;;;;3065522;19;5077;-68
2023/03/21 07:54:13;;;;;;;;;;;21.00;41.30;;;;;;3065457;19;5400;-67
2023/03/21 07:55:16;;;;;;;;;;;21.00;41.20;;;;;;3064006;19;4825;-67
2023/03/21 07:56:16;;;;;;;;;;;21.10;41.20;;;;;;3065567;19;4561;-67
2023/03/21 07:57:17;;;;;;;;;;;21.10;41.20;;;;;;3063419;19;4680;-67
2023/03/21 07:58:18;;;;;;;;;;;21.10;41.20;;;;;;3063580;19;4704;-66
2023/03/21 07:59:18;;;;;;;;;;;21.10;41.20;;;;;;3065986;19;5111;-67
2023/03/21 08:00:22;;;;;;;;;;;21.10;41.20;;;;;;3064473;19;5627;-67
2023/03/21 08:01:23;;;;;;;;;;;21.20;41.20;;;;;;3063487;19;5283;-67
2023/03/21 08:02:24;;;;;;;;;;;21.10;41.10;;;;;;3061746;19;4984;-67
2023/03/21 08:03:27;;;;;;;;;;;21.10;41.10;;;;;;3059093;19;5037;-66
2023/03/21 08:04:28;;;;;;;;;;;21.10;41.10;;;;;;3056017;19;5361;-67
2023/03/21 08:05:32;;;;;;;;;;;21.20;41.10;;;;;;3056356;19;4959;-68
2023/03/21 08:06:33;;;;;;;;;;;21.20;41.20;;;;;;3056003;19;4775;-67
2023/03/21 08:07:33;;;;;;;;;;;21.20;41.20;;;;;;3054661;19;4453;-66
2023/03/21 08:08:34;;;;;;;;;;;21.10;41.20;;;;;;3055715;19;4610;-66
2023/03/21 08:09:36;;;;;;;;;;;21.10;41.30;;;;;;3054232;19;4893;-67
2023/03/21 08:10:36;;;;;;;;;;;21.10;41.40;;;;;;3054691;19;6126;-67
2023/03/21 08:11:37;;;;;;;;;;;21.10;41.50;;;;;;3054960;19;4816;-67
2023/03/21 08:12:38;;;;;;;;;;;21.10;41.70;;;;;;3054485;19;5051;-68
2023/03/21 08:13:39;;;;;;;;;;;21.10;41.80;;;;;;3054876;19;5165;-67
2023/03/21 08:14:39;;;;;;;;;;;21.10;41.80;;;;;;3055902;19;4924;-67
2023/03/21 08:15:40;;;;;;;;;;;21.00;41.90;;;;;;3054564;19;4573;-67
2023/03/21 08:16:41;;;;;;;;;;;21.00;41.90;;;;;;3054687;19;4422;-67
2023/03/21 08:17:44;;;;;;;;;;;21.00;42.00;;;;;;3054734;19;4851;-67
2023/03/21 08:18:45;;;;;;;;;;;21.00;42.00;;;;;;3053595;19;4518;-66
2023/03/21 08:19:46;;;;;;;;;;;21.00;42.00;;;;;;3054353;19;4926;-68
2023/03/21 08:20:53;;;;;;;;;;;21.00;42.00;;;;;;3054145;19;4418;-70
2023/03/21 08:21:54;;;;;;;;;;;21.00;42.10;;;;;;3055105;19;4714;-68
2023/03/21 08:22:55;;;;;;;;;;;21.00;42.10;;;;;;3053255;19;4878;-67
2023/03/21 08:23:55;;;;;;;;;;;21.00;42.20;;;;;;3053721;19;5613;-68
2023/03/21 08:24:56;;;;;;;;;;;21.00;42.20;;;;;;3052422;19;5038;-67
2023/03/21 08:25:57;;;;;;;;;;;21.00;42.40;;;;;;3052220;19;4700;-67
2023/03/21 08:26:57;;;;;;;;;;;21.00;42.30;;;;;;3052172;19;4597;-67
2023/03/21 08:27:58;;;;;;;;;;;20.90;42.50;;;;;;3050152;19;5012;-67
2023/03/21 08:28:59;;;;;;;;;;;20.90;42.30;;;;;;3054294;19;4951;-66
2023/03/21 08:30:01;;;;;;;;;;;20.90;42.40;;;;;;3054528;19;5026;-67
2023/03/21 08:31:08;;;;;;;;;;;20.90;42.30;;;;;;3054756;19;5672;-67
2023/03/21 08:32:09;;;;;;;;;;;20.90;42.40;;;;;;3053844;19;12006;-67
2023/03/21 08:33:09;;;;;;;;;;;20.90;42.20;;;;;;3054799;19;4945;-66
2023/03/21 08:34:12;;;;;;;;;;;20.90;42.10;;;;;;3054574;19;4771;-67
2023/03/21 08:35:14;;;;;;;;;;;21.00;42.40;;;;;;3053595;19;4700;-67
2023/03/21 08:36:15;;;;;;;;;;;20.90;42.50;;;;;;3054017;19;5124;-67
2023/03/21 08:37:16;;;;;;;;;;;21.00;42.50;;;;;;3053540;19;4985;-67
2023/03/21 08:38:16;;;;;;;;;;;21.00;42.60;;;;;;3054131;19;5076;-67
2023/03/21 08:39:17;;;;;;;;;;;21.00;42.50;;;;;;3053503;19;5651;-67
2023/03/21 08:40:19;;;;;;;;;;;21.00;42.50;;;;;;3053332;19;4993;-67
2023/03/21 08:41:20;;;;;;;;;;;21.00;42.50;;;;;;3054532;19;4418;-69
2023/03/21 08:42:21;;;;;;;;;;;21.10;42.50;;;;;;3052601;19;5559;-67
2023/03/21 08:43:22;;;;;;;;;;;21.10;42.40;;;;;;3051745;19;4556;-67
2023/03/21 08:44:24;;;;;;;;;;;21.10;42.50;;;;;;3054002;19;4850;-66
2023/03/21 08:45:25;;;;;;;;;;;21.10;42.60;;;;;;3052520;19;4946;-67
2023/03/21 08:46:26;;;;;;;;;;;21.10;42.60;;;;;;3053737;19;4736;-66
2023/03/21 08:47:27;;;;;;;;;;;21.00;42.60;;;;;;3052053;19;4858;-66
2023/03/21 08:48:27;;;;;;;;;;;21.10;42.60;;;;;;3053586;19;4979;-67
2023/03/21 08:49:28;;;;;;;;;;;21.10;42.50;;;;;;3054605;19;4965;-67
2023/03/21 08:50:30;;;;;;;;;;;21.00;42.50;;;;;;3053263;19;4995;-67
2023/03/21 08:51:32;;;;;;;;;;;21.10;42.40;;;;;;3052897;19;5158;-67
2023/03/21 08:52:33;;;;;;;;;;;21.10;42.40;;;;;;3054370;19;4548;-67
2023/03/21 08:53:33;;;;;;;;;;;21.10;42.30;;;;;;3053730;19;5276;-67
2023/03/21 08:54:34;;;;;;;;;;;21.10;42.30;;;;;;3053762;19;4667;-67
2023/03/21 08:55:35;;;;;;;;;;;21.10;42.40;;;;;;3053923;19;4902;-67
2023/03/21 08:56:35;;;;;;;;;;;21.20;42.40;;;;;;3052167;19;5350;-68
2023/03/21 08:57:36;;;;;;;;;;;21.30;42.20;;;;;;3051143;19;5341;-68
2023/03/21 08:58:37;;;;;;;;;;;21.30;42.00;;;;;;3053484;19;4899;-67
2023/03/21 08:59:38;;;;;;;;;;;21.40;42.00;;;;;;3051955;19;4981;-68
2023/03/21 09:00:39;;;;;;;;;;;21.30;41.90;;;;;;3051493;19;5338;-67
2023/03/21 09:01:40;;;;;;;;;;;21.40;41.80;;;;;;3050700;19;4839;-68
2023/03/21 09:02:40;;;;;;;;;;;21.40;41.80;;;;;;3053703;19;4970;-67
2023/03/21 09:03:41;;;;;;;;;;;21.40;41.80;;;;;;3053543;19;5052;-68
2023/03/21 09:04:43;;;;;;;;;;;21.40;41.80;;;;;;3054991;19;4854;-67
2023/03/21 09:05:44;;;;;;;;;;;21.40;41.70;;;;;;3053798;19;5595;-66
2023/03/21 09:06:47;;;;;;;;;;;21.40;41.70;;;;;;3053721;19;4930;-67
2023/03/21 09:07:48;;;;;;;;;;;21.40;41.70;;;;;;3053525;19;4453;-67
2023/03/21 09:08:51;;;;;;;;;;;21.30;41.80;;;;;;3053568;19;5051;-68
2023/03/21 09:09:52;;;;;;;;;;;21.30;41.80;;;;;;3050646;19;5934;-68
2023/03/21 09:10:53;;;;;;;;;;;21.30;41.70;;;;;;3052501;19;4927;-68
2023/03/21 09:11:54;;;;;;;;;;;21.30;41.80;;;;;;3051979;19;5383;-68
2023/03/21 09:12:54;;;;;;;;;;;21.30;41.70;;;;;;3052704;19;6269;-67
2023/03/21 09:13:55;;;;;;;;;;;21.40;41.70;;;;;;3052293;19;5474;-68
2023/03/21 09:14:56;;;;;;;;;;;21.30;41.70;;;;;;3053507;19;5739;-66
2023/03/21 09:16:00;;;;;;;;;;;21.40;41.80;;;;;;3052610;19;4955;-67
2023/03/21 09:17:00;;;;;;;;;;;21.30;42.30;;;;;;3051871;19;4628;-66
2023/03/21 09:18:12;;;;;;;;;;;21.30;41.70;;;;;;3050929;19;5099;-66
2023/03/21 09:19:12;;;;;;;;;;;21.40;41.70;;;;;;3049830;19;4925;-68
2023/03/21 09:20:21;;;;;;;;;;;21.30;41.70;;;;;;3050458;19;5103;-68
2023/03/21 09:21:22;;;;;;;;;;;21.30;41.80;;;;;;3052891;19;5012;-68
2023/03/21 09:22:24;;;;;;;;;;;21.40;41.80;;;;;;3051274;19;4688;-67
2023/03/21 09:23:24;;;;;;;;;;;21.40;41.80;;;;;;3051640;19;4410;-68
2023/03/21 09:24:25;;;;;;;;;;;21.40;41.70;;;;;;3050677;19;5192;-65
2023/03/21 09:25:29;;;;;;;;;;;21.40;41.70;;;;;;3051227;19;5556;-67
2023/03/21 09:26:30;;;;;;;;;;;21.40;41.70;;;;;;3052654;19;4645;-68
2023/03/21 09:27:32;;;;;;;;;;;21.40;41.80;;;;;;3050653;19;5566;-67
2023/03/21 09:28:33;;;;;;;;;;;21.30;41.80;;;;;;3051556;19;4997;-66
2023/03/21 09:29:34;;;;;;;;;;;21.30;41.90;;;;;;3050900;19;4884;-67
2023/03/21 09:30:35;;;;;;;;;;;21.30;41.90;;;;;;3049263;19;4686;-67
2023/03/21 09:31:36;;;;;;;;;;;21.30;41.90;;;;;;3050638;19;4827;-67
2023/03/21 09:32:37;;;;;;;;;;;21.30;41.90;;;;;;3049790;19;5601;-68
2023/03/21 09:33:39;;;;;;;;;;;21.30;41.90;;;;;;3049981;19;4528;-66
2023/03/21 09:34:40;;;;;;;;;;;21.30;41.90;;;;;;3051161;19;4968;-68
2023/03/21 09:35:41;;;;;;;;;;;21.30;41.90;;;;;;3051871;19;4874;-67
2023/03/21 09:36:43;;;;;;;;;;;21.30;42.00;;;;;;3051371;19;940;-67
2023/03/21 09:37:47;;;;;;;;;;;21.20;41.90;;;;;;3045735;19;5065;-68
2023/03/21 09:38:48;;;;;;;;;;;21.30;42.00;;;;;;3053522;19;4983;-69
2023/03/21 09:39:50;;;;;;;;;;;21.20;42.00;;;;;;3051629;19;4752;-68
2023/03/21 09:41:09;;;;;;;;;;;21.20;42.10;;;;;;3050973;19;4886;-68
2023/03/21 09:42:31;;;;;;;;;;;21.20;41.90;;;;;;3049460;19;4394;-69
2023/03/21 09:44:10;;;;;;;;;;;21.20;42.20;;;;;;3051641;19;4974;-68
2023/03/21 09:45:22;;;;;;;;;;;21.20;42.00;;;;;;3050250;19;4530;-68
2023/03/21 09:46:56;;;;;;;;;;;21.20;42.30;;;;;;3052195;19;5357;-67
2023/03/21 09:47:57;;;;;;;;;;;21.20;42.30;;;;;;3051742;19;4508;-68
2023/03/21 09:49:00;;;;;;;;;;;21.20;42.30;;;;;;3052808;19;4968;-68
2023/03/21 09:50:15;;;;;;;;;;;21.20;42.40;;;;;;3052224;19;5504;-68
2023/03/21 09:51:17;;;;;;;;;;;21.10;42.40;;;;;;2946269;19;2004400;-68
2023/03/21 09:52:23;;;;;;;;;;;21.10;42.40;;;;;;3053034;19;4787;-67
2023/03/21 09:53:32;;;;;;;;;;;21.10;42.50;;;;;;3048004;19;5043;-68
2023/03/21 09:54:38;;;;;;;;;;;21.10;42.50;;;;;;3051186;19;4739;-67
2023/03/21 09:55:39;;;;;;;;;;;21.10;42.60;;;;;;3050454;19;5115;-67
2023/03/21 09:56:40;;;;;;;;;;;21.10;42.60;;;;;;3053393;19;4984;-68
2023/03/21 09:57:41;;;;;;;;;;;21.10;42.70;;;;;;3053371;19;4985;-67
2023/03/21 09:58:54;;;;;;;;;;;21.10;42.70;;;;;;3050100;19;4926;-67
2023/03/21 09:59:55;;;;;;;;;;;21.00;42.80;;;;;;3051864;19;4790;-67
2023/03/21 10:01:03;;;;;;;;;;;21.10;42.80;;;;;;3050364;19;4516;-67
2023/03/21 10:02:37;;;;;;;;;;;21.00;42.80;;;;;;3051331;19;5010;-68
2023/03/21 10:03:38;;;;;;;;;;;21.00;42.90;;;;;;2845015;19;2004297;-67
2023/03/21 10:04:38;;;;;;;;;;;21.00;42.80;;;;;;3052203;19;4404;-67
2023/03/21 10:05:39;;;;;;;;;;;21.00;42.80;;;;;;3031645;19;4475;-68
2023/03/21 10:06:41;;;;;;;;;;;21.00;43.00;;;;;;3052700;19;5364;-68
2023/03/21 10:07:47;;;;;;;;;;;21.10;43.10;;;;;;3051074;19;4778;-67
2023/03/21 10:08:48;;;;;;;;;;;21.10;43.10;;;;;;3049971;19;4813;-68
2023/03/21 10:09:49;;;;;;;;;;;21.10;43.10;;;;;;3051591;19;4830;-68
2023/03/21 10:10:52;;;;;;;;;;;21.10;43.00;;;;;;3051348;19;4832;-67
2023/03/21 10:11:58;;;;;;;;;;;21.10;43.00;;;;;;3052183;19;4981;-67
2023/03/21 10:12:58;;;;;;;;;;;21.20;43.00;;;;;;3054557;19;5886;-67
2023/03/21 10:14:05;;;;;;;;;;;21.20;43.10;;;;;;3056475;19;4774;-68
2023/03/21 10:15:13;;;;;;;;;;;21.20;43.10;;;;;;3060671;19;4884;-69
2023/03/21 10:16:16;;;;;;;;;;;21.20;43.00;;;;;;3061011;19;5105;-67
2023/03/21 10:17:36;;;;;;;;;;;21.20;43.10;;;;;;3059885;19;5558;-67
2023/03/21 10:18:37;;;;;;;;;;;21.20;43.10;;;;;;3066147;19;4460;-67
2023/03/21 10:19:37;;;;;;;;;;;21.20;43.20;;;;;;3063455;19;4778;-67
2023/03/21 10:20:40;;;;;;;;;;;21.20;43.20;;;;;;3065764;19;4991;-68
2023/03/21 10:21:45;;;;;;;;;;;21.20;43.20;;;;;;3065917;19;4958;-67
2023/03/21 10:22:46;;;;;;;;;;;21.20;43.20;;;;;;3065299;19;4385;-67
2023/03/21 10:23:50;;;;;;;;;;;21.20;43.30;;;;;;3066645;19;4606;-67
2023/03/21 10:24:51;;;;;;;;;;;21.10;43.30;;;;;;3066618;19;5229;-69
2023/03/21 10:25:54;;;;;;;;;;;21.10;43.10;;;;;;3066452;19;5061;-67
2023/03/21 10:26:55;;;;;;;;;;;21.20;43.50;;;;;;3064486;19;4893;-67
2023/03/21 10:27:56;;;;;;;;;;;21.10;43.40;;;;;;3064516;19;4953;-68
2023/03/21 10:28:57;;;;;;;;;;;21.10;43.50;;;;;;3065550;19;5003;-67
2023/03/21 10:30:01;;;;;;;;;;;21.10;43.50;;;;;;3064529;19;5409;-67
2023/03/21 10:31:05;;;;;;;;;;;21.10;43.50;;;;;;3064485;19;4902;-67
2023/03/21 10:32:07;;;;;;;;;;;21.10;43.50;;;;;;3063539;19;4265;-69
2023/03/21 10:33:12;;;;;;;;;;;21.10;43.70;;;;;;3056333;19;4957;-69
2023/03/21 10:34:39;;;;;;;;;;;21.10;43.70;;;;;;3057412;19;5207;-68
2023/03/21 10:35:40;;;;;;;;;;;21.10;43.60;;;;;;3051697;19;4980;-65
2023/03/21 10:36:41;;;;;;;;;;;21.10;43.80;;;;;;3049905;19;5889;-67
2023/03/21 10:37:42;;;;;;;;;;;21.10;43.80;;;;;;3052975;19;4982;-68
2023/03/21 10:38:46;;;;;;;;;;;21.10;43.80;;;;;;3052226;19;4933;-68
2023/03/21 10:39:48;;;;;;;;;;;21.00;44.00;;;;;;3052315;19;4898;-67
2023/03/21 10:40:49;;;;;;;;;;;21.00;43.80;;;;;;3051147;19;4725;-67
2023/03/21 10:41:50;;;;;;;;;;;21.00;44.00;;;;;;3049327;19;4800;-67
2023/03/21 10:42:54;;;;;;;;;;;21.10;44.10;;;;;;3051513;19;5020;-67
2023/03/21 10:44:05;;;;;;;;;;;21.00;43.90;;;;;;3051983;19;4887;-68
2023/03/21 10:45:06;;;;;;;;;;;21.00;44.00;;;;;;3052836;19;4509;-68
2023/03/21 10:46:08;;;;;;;;;;;21.10;44.30;;;;;;3051375;19;4383;-67
2023/03/21 10:47:08;;;;;;;;;;;21.10;44.10;;;;;;3050521;19;4914;-69
2023/03/21 10:48:09;;;;;;;;;;;21.10;44.20;;;;;;3048907;19;4906;-66
2023/03/21 10:49:14;;;;;;;;;;;21.10;44.00;;;;;;3049703;19;4306;-69
2023/03/21 10:50:18;;;;;;;;;;;21.20;44.00;;;;;;3050400;19;5446;-68
2023/03/21 10:51:30;;;;;;;;;;;21.20;44.20;;;;;;3051376;19;4404;-68
2023/03/21 10:52:31;;;;;;;;;;;21.20;44.40;;;;;;3050266;19;4856;-68
2023/03/21 10:53:35;;;;;;;;;;;21.30;44.30;;;;;;3050056;19;4942;-68
2023/03/21 10:54:35;;;;;;;;;;;21.40;44.10;;;;;;3049061;19;5112;-68
2023/03/21 10:55:39;;;;;;;;;;;21.50;44.10;;;;;;3051659;19;4903;-67
2023/03/21 10:56:44;;;;;;;;;;;21.50;44.00;;;;;;3050422;19;4678;-69
2023/03/21 10:57:45;;;;;;;;;;;21.50;43.90;;;;;;3051841;19;4419;-67
2023/03/21 10:58:46;;;;;;;;;;;21.50;43.90;;;;;;3051357;19;4978;-68
2023/03/21 10:59:56;;;;;;;;;;;21.50;43.90;;;;;;3047432;19;5037;-68
2023/03/21 11:01:00;;;;;;;;;;;21.50;43.90;;;;;;3047172;19;4261;-67
2023/03/21 11:02:01;;;;;;;;;;;21.50;43.90;;;;;;3050744;19;4887;-67
2023/03/21 11:03:02;;;;;;;;;;;21.50;43.90;;;;;;3048419;19;5033;-67
2023/03/21 11:04:15;;;;;;;;;;;21.50;44.00;;;;;;3048471;19;4741;-68
2023/03/21 11:05:33;;;;;;;;;;;21.50;44.00;;;;;;3049472;19;5194;-68
2023/03/21 11:06:36;;;;;;;;;;;21.50;44.00;;;;;;3049584;19;5376;-68
2023/03/21 11:07:37;;;;;;;;;;;21.50;44.00;;;;;;3049519;19;4965;-68
2023/03/21 11:08:48;;;;;;;;;;;21.50;44.00;;;;;;3049371;19;5074;-67
2023/03/21 11:09:53;;;;;;;;;;;21.50;44.00;;;;;;3049476;19;4804;-68
2023/03/21 11:11:08;;;;;;;;;;;21.40;43.90;;;;;;3048392;19;4936;-67
2023/03/21 11:12:10;;;;;;;;;;;21.50;44.00;;;;;;3051236;19;4987;-67
2023/03/21 11:13:17;;;;;;;;;;;21.50;44.10;;;;;;3047015;19;5023;-71
2023/03/21 11:14:33;;;;;;;;;;;21.50;44.00;;;;;;3048158;19;5457;-67
2023/03/21 11:15:36;;;;;;;;;;;21.50;44.10;;;;;;3047885;19;4404;-67
2023/03/21 11:16:41;;;;;;;;;;;21.50;44.10;;;;;;3049500;19;5000;-68
2023/03/21 11:17:44;;;;;;;;;;;21.50;44.10;;;;;;3048729;19;4867;-68
2023/03/21 11:18:49;;;;;;;;;;;21.50;44.10;;;;;;3049344;19;5211;-67
2023/03/21 11:20:00;;;;;;;;;;;21.50;44.10;;;;;;3050726;19;5505;-67
2023/03/21 11:21:05;;;;;;;;;;;21.50;44.10;;;;;;3049096;19;5258;-67
2023/03/21 11:22:06;;;;;;;;;;;21.50;44.10;;;;;;3049717;19;4947;-68
2023/03/21 11:23:09;;;;;;;;;;;21.50;44.10;;;;;;3050871;19;4794;-67
2023/03/21 11:24:13;;;;;;;;;;;21.50;44.10;;;;;;3047936;19;4884;-68
2023/03/21 11:25:35;;;;;;;;;;;21.50;44.10;;;;;;3050360;19;5227;-67
2023/03/21 11:26:36;;;;;;;;;;;21.50;44.00;;;;;;3049031;19;5076;-68
2023/03/21 11:27:37;;;;;;;;;;;21.50;44.10;;;;;;3047795;19;5799;-68
2023/03/21 11:28:39;;;;;;;;;;;21.50;44.70;;;;;;3050030;19;5252;-68
2023/03/21 11:29:40;;;;;;;;;;;21.50;44.10;;;;;;3048982;19;4853;-67
2023/03/21 11:30:53;;;;;;;;;;;21.40;44.10;;;;;;3047301;19;5130;-68
2023/03/21 11:31:58;;;;;;;;;;;21.40;44.20;;;;;;3047924;19;5512;-67
2023/03/21 11:33:02;;;;;;;;;;;21.40;44.10;;;;;;3050408;19;5308;-67
2023/03/21 11:34:05;;;;;;;;;;;21.40;44.10;;;;;;3051015;19;4722;-68
2023/03/21 11:35:08;;;;;;;;;;;21.40;44.30;;;;;;3049583;19;4868;-66
2023/03/21 11:36:17;;;;;;;;;;;21.40;44.30;;;;;;3050935;19;4872;-68
2023/03/21 11:37:25;;;;;;;;;;;21.30;44.20;;;;;;3050443;19;4857;-67
2023/03/21 11:38:29;;;;;;;;;;;21.30;44.20;;;;;;3051911;19;4877;-67
2023/03/21 11:39:36;;;;;;;;;;;21.30;44.70;;;;;;3050833;19;4550;-69
2023/03/21 11:40:38;;;;;;;;;;;21.30;45.10;;;;;;3050714;19;4890;-67
2023/03/21 11:41:40;;;;;;;;;;;21.20;45.00;;;;;;3050306;19;4309;-68
2023/03/21 11:42:46;;;;;;;;;;;21.30;45.10;;;;;;3048894;19;4767;-67
2023/03/21 11:43:51;;;;;;;;;;;21.20;45.20;;;;;;3049800;19;4862;-68
2023/03/21 11:44:57;;;;;;;;;;;21.20;45.10;;;;;;3049081;19;5904;-68
2023/03/21 11:46:03;;;;;;;;;;;21.20;45.00;;;;;;3048431;19;4955;-67
2023/03/21 11:47:04;;;;;;;;;;;21.20;45.10;;;;;;3048023;19;4482;-67
2023/03/21 11:48:11;;;;;;;;;;;21.20;45.00;;;;;;3042805;19;4520;-69
2023/03/21 11:49:12;;;;;;;;;;;21.20;45.10;;;;;;3048365;19;4966;-67
2023/03/21 11:50:17;;;;;;;;;;;21.20;45.00;;;;;;3048370;19;4766;-68
2023/03/21 11:51:29;;;;;;;;;;;21.20;45.00;;;;;;3047566;19;4392;-68
2023/03/21 11:52:40;;;;;;;;;;;21.20;45.10;;;;;;3049993;19;4840;-68
2023/03/21 11:53:52;;;;;;;;;;;21.20;45.10;;;;;;3050532;19;4512;-68
2023/03/21 11:55:26;;;;;;;;;;;21.20;45.10;;;;;;3048951;19;4449;-68
2023/03/21 11:56:30;;;;;;;;;;;21.20;45.10;;;;;;2844576;19;2005245;-68
2023/03/21 11:57:40;;;;;;;;;;;21.10;45.10;;;;;;3048454;19;5091;-67
2023/03/21 11:59:06;;;;;;;;;;;21.10;45.10;;;;;;3047347;19;5400;-66
2023/03/21 12:00:30;;;;;;;;;;;21.10;45.10;;;;;;3048413;19;4934;-68
2023/03/21 12:01:51;;;;;;;;;;;21.10;45.20;;;;;;3049081;19;4827;-68
2023/03/21 12:02:57;;;;;;;;;;;21.10;45.20;;;;;;3048409;19;4764;-68
2023/03/21 12:04:17;;;;;;;;;;;21.10;45.10;;;;;;3050193;19;4899;-68
2023/03/21 12:05:20;;;;;;;;;;;21.10;45.10;;;;;;2949978;19;2004283;-68
2023/03/21 12:06:32;;;;;;;;;;;21.10;45.30;;;;;;3049145;19;5431;-68
2023/03/21 12:08:11;;;;;;;;;;;21.10;45.30;;;;;;3050785;19;4651;-68
2023/03/21 12:09:39;;;;;;;;;;;21.10;45.00;;;;;;3051099;19;5401;-67
2023/03/21 12:11:00;;;;;;;;;;;21.10;45.30;;;;;;3051053;19;5068;-68
2023/03/21 12:12:26;;;;;;;;;;;21.10;45.50;;;;;;3050024;19;4649;-68
2023/03/21 12:13:42;;;;;;;;;;;21.10;45.40;;;;;;2847119;19;2005088;-72
2023/03/21 12:14:51;;;;;;;;;;;21.20;45.30;;;;;;3053187;19;5290;-73
2023/03/21 12:16:08;;;;;;;;;;;21.20;45.00;;;;;;3052234;19;4992;-71
2023/03/21 12:17:25;;;;;;;;;;;21.20;45.20;;;;;;3054101;19;4922;-72
2023/03/21 12:18:32;;;;;;;;;;;21.20;45.20;;;;;;2847774;19;2004658;-73
2023/03/21 12:19:57;;;;;;;;;;;21.30;45.10;;;;;;3053822;19;5045;-72
2023/03/21 12:21:17;;;;;;;;;;;21.20;45.10;;;;;;3051678;19;5042;-72
2023/03/21 12:22:38;;;;;;;;;;;21.20;45.10;;;;;;2847623;19;2005126;-69
2023/03/21 12:23:59;;;;;;;;;;;21.20;45.10;;;;;;3051947;19;4499;-71
2023/03/21 12:25:14;;;;;;;;;;;21.30;45.10;;;;;;3054141;19;4835;-74
2023/03/21 12:26:28;;;;;;;;;;;21.20;45.00;;;;;;3052318;19;5263;-69
2023/03/21 12:27:47;;;;;;;;;;;21.20;45.20;;;;;;3054010;19;4868;-70
2023/03/21 12:29:18;;;;;;;;;;;21.20;45.30;;;;;;3052914;19;4854;-69
2023/03/21 12:30:32;;;;;;;;;;;21.20;45.10;;;;;;2845111;19;2004218;-70
2023/03/21 12:31:47;;;;;;;;;;;21.20;45.20;;;;;;3053513;19;5039;-70
2023/03/21 12:33:29;;;;;;;;;;;21.20;45.20;;;;;;3053624;19;4420;-70
2023/03/21 12:34:55;;;;;;;;;;;21.20;45.20;;;;;;2847326;19;2006233;-70
2023/03/21 12:36:06;;;;;;;;;;;21.20;45.20;;;;;;3053412;19;5341;-73
2023/03/21 12:37:25;;;;;;;;;;;21.20;45.20;;;;;;3052867;19;4927;-70